createdAt,value
2018-01-23T00:01:12.508Z,163.43
2018-01-23T00:03:40.340Z,237.43
2018-01-23T00:06:08.292Z,126.60
2018-01-23T00:08:36.070Z,127.63
2018-01-23T00:11:03.812Z,214.80
2018-01-23T00:13:31.607Z,288.33
2018-01-23T00:15:59.516Z,154.60
2018-01-23T00:18:27.348Z,133.90
2018-01-23T00:20:57.787Z,152.00
2018-01-23T00:23:25.663Z,140.70
2018-01-23T00:25:53.535Z,143.57
2018-01-23T00:28:21.340Z,205.70
2018-01-23T00:30:49.166Z,166.03
2018-01-23T00:33:16.960Z,178.17
2018-01-23T00:35:44.700Z,188.33
2018-01-23T00:38:12.495Z,143.10
2018-01-23T00:40:40.500Z,178.53
2018-01-23T00:43:08.320Z,167.43
2018-01-23T00:45:36.144Z,247.73
2018-01-23T00:48:04.028Z,224.17
2018-01-23T00:50:32.206Z,201.13
2018-01-23T00:52:59.999Z,237.33
2018-01-23T00:55:28.471Z,223.57
2018-01-23T00:57:56.458Z,210.87
2018-01-23T01:00:24.196Z,233.97
2018-01-23T01:02:52.038Z,205.93
2018-01-23T01:05:19.851Z,371.17
2018-01-23T01:07:47.673Z,142.87
2018-01-23T01:10:15.496Z,141.97
2018-01-23T01:12:43.250Z,184.07
2018-01-23T01:15:11.040Z,179.63
2018-01-23T01:17:38.786Z,237.53
2018-01-23T01:20:06.596Z,247.97
2018-01-23T01:22:34.429Z,223.33
2018-01-23T01:25:02.132Z,187.10
2018-01-23T01:27:29.965Z,235.23
2018-01-23T01:29:57.769Z,185.27
2018-01-23T01:32:25.567Z,136.30
2018-01-23T01:34:53.384Z,244.37
2018-01-23T01:37:21.227Z,239.30
2018-01-23T01:39:49.077Z,178.83
2018-01-23T01:42:16.923Z,303.37
2018-01-23T01:44:44.739Z,155.83
2018-01-23T01:47:12.605Z,212.20
2018-01-23T01:49:41.599Z,185.90
2018-01-23T01:52:10.264Z,232.63
2018-01-23T01:54:38.110Z,273.97
2018-01-23T01:57:06.127Z,280.70
2018-01-23T01:59:35.232Z,195.43
2018-01-23T02:02:03.223Z,222.87
2018-01-23T02:04:31.073Z,181.77
2018-01-23T02:06:58.972Z,173.83
2018-01-23T02:09:29.149Z,196.60
2018-01-23T02:11:57.092Z,208.03
2018-01-23T02:14:24.907Z,303.67
2018-01-23T02:16:52.739Z,295.37
2018-01-23T02:19:21.324Z,224.33
2018-01-23T02:21:49.173Z,314.57
2018-01-23T02:24:17.266Z,182.37
2018-01-23T02:26:46.158Z,191.87
2018-01-23T02:29:14.089Z,251.60
2018-01-23T02:31:41.967Z,214.33
2018-01-23T02:34:10.067Z,216.57
2018-01-23T02:36:37.910Z,188.63
2018-01-23T02:39:05.743Z,190.30
2018-01-23T02:41:33.561Z,229.43
2018-01-23T02:44:01.405Z,253.37
2018-01-23T02:46:30.516Z,189.77
2018-01-23T02:48:58.431Z,262.23
2018-01-23T02:51:26.264Z,234.70
2018-01-23T02:53:54.137Z,198.20
2018-01-23T02:56:21.921Z,194.27
2018-01-23T02:58:49.850Z,178.30
2018-01-23T03:01:17.686Z,171.47
2018-01-23T03:03:45.916Z,173.17
2018-01-23T03:06:13.687Z,116.20
2018-01-23T03:08:45.535Z,149.80
2018-01-23T03:11:13.411Z,221.07
2018-01-23T03:13:41.198Z,180.03
2018-01-23T03:16:09.122Z,163.30
2018-01-23T03:18:36.996Z,172.87
2018-01-23T03:21:04.774Z,192.83
2018-01-23T03:23:32.613Z,207.60
2018-01-23T03:26:00.454Z,181.97
2018-01-23T03:28:28.333Z,172.67
2018-01-23T03:30:56.131Z,205.73
2018-01-23T03:33:24.039Z,158.80
2018-01-23T03:35:51.871Z,118.30
2018-01-23T03:38:19.680Z,137.93
2018-01-23T03:40:47.514Z,100.97
2018-01-23T03:43:15.297Z,113.50
2018-01-23T03:45:43.558Z,98.07
2018-01-23T03:48:11.511Z,77.90
2018-01-23T03:50:39.652Z,89.57
2018-01-23T03:53:07.784Z,80.10
2018-01-23T03:55:35.579Z,71.90
2018-01-23T03:58:03.496Z,71.87
2018-01-23T04:00:31.359Z,71.07
2018-01-23T04:02:59.169Z,75.80
2018-01-23T04:05:26.981Z,74.83
2018-01-23T04:07:54.795Z,79.93
2018-01-23T04:10:22.628Z,77.30
2018-01-23T04:12:50.476Z,78.17
2018-01-23T04:15:18.215Z,101.53
2018-01-23T04:17:46.107Z,70.20
2018-01-23T04:20:13.928Z,65.17
2018-01-23T04:22:41.706Z,72.47
2018-01-23T04:25:09.506Z,56.73
2018-01-23T04:27:37.320Z,59.07
2018-01-23T04:30:05.077Z,70.43
2018-01-23T04:32:32.792Z,50.93
2018-01-23T04:35:00.608Z,64.47
2018-01-23T04:37:28.433Z,75.97
2018-01-23T04:39:56.373Z,68.80
2018-01-23T04:42:24.182Z,82.67
2018-01-23T04:44:52.075Z,71.13
2018-01-23T04:47:19.767Z,93.97
2018-01-23T04:49:47.656Z,87.73
2018-01-23T04:52:15.447Z,90.80
2018-01-23T04:54:43.364Z,83.40
2018-01-23T04:57:11.231Z,108.90
2018-01-23T04:59:39.065Z,61.93
2018-01-23T05:02:06.736Z,57.63
2018-01-23T05:04:34.946Z,52.77
2018-01-23T05:07:02.752Z,46.53
2018-01-23T05:09:30.634Z,52.43
2018-01-23T05:11:58.494Z,50.00
2018-01-23T05:14:27.133Z,54.93
2018-01-23T05:16:55.032Z,51.90
2018-01-23T05:19:22.845Z,51.37
2018-01-23T05:21:50.668Z,60.27
2018-01-23T05:24:18.395Z,48.87
2018-01-23T05:26:46.332Z,39.30
2018-01-23T05:29:14.292Z,47.43
2018-01-23T05:31:42.019Z,48.73
2018-01-23T05:34:09.900Z,46.17
2018-01-23T05:36:37.781Z,54.53
2018-01-23T05:39:05.612Z,401.83
2018-01-23T05:41:33.510Z,51.40
2018-01-23T05:44:01.346Z,53.57
2018-01-23T05:46:29.850Z,48.70
2018-01-23T05:48:57.697Z,41.70
2018-01-23T05:51:25.712Z,42.63
2018-01-23T05:53:53.499Z,51.70
2018-01-23T05:56:21.176Z,40.13
2018-01-23T05:58:50.188Z,40.83
2018-01-23T06:01:18.687Z,45.20
2018-01-23T06:03:46.455Z,45.83
2018-01-23T06:06:14.184Z,52.93
2018-01-23T06:08:41.876Z,52.77
2018-01-23T06:11:09.609Z,46.17
2018-01-23T06:13:41.106Z,48.00
2018-01-23T06:16:08.971Z,49.23
2018-01-23T06:18:39.010Z,61.63
2018-01-23T06:21:11.377Z,45.43
2018-01-23T06:23:45.763Z,57.87
2018-01-23T06:26:20.218Z,42.43
2018-01-23T06:28:49.108Z,49.83
2018-01-23T06:31:21.667Z,45.00
2018-01-23T06:33:53.955Z,45.90
2018-01-23T06:36:42.443Z,55.07
2018-01-23T06:42:33.655Z,43.23
2018-01-23T06:45:01.602Z,56.97
2018-01-23T06:47:34.547Z,45.40
2018-01-23T06:52:44.048Z,41.47
2018-01-23T06:55:17.487Z,46.10
2018-01-23T06:57:51.174Z,46.20
2018-01-23T07:00:18.927Z,42.93
2018-01-23T07:05:27.705Z,58.17
2018-01-23T07:07:58.125Z,49.13
2018-01-23T07:10:35.346Z,51.07
2018-01-23T07:13:11.124Z,55.23
2018-01-23T07:15:38.968Z,51.87
2018-01-23T07:18:11.399Z,71.23
2018-01-23T07:20:41.918Z,59.13
2018-01-23T07:23:09.755Z,66.20
2018-01-23T07:25:37.648Z,51.40
2018-01-23T07:28:05.476Z,47.87
2018-01-23T07:30:33.344Z,86.37
2018-01-23T07:33:01.143Z,67.57
2018-01-23T07:35:31.086Z,85.17
2018-01-23T07:37:58.959Z,65.00
2018-01-23T07:40:26.903Z,62.97
2018-01-23T07:42:54.754Z,69.93
2018-01-23T07:45:24.233Z,68.50
2018-01-23T07:47:54.795Z,56.10
2018-01-23T07:50:22.558Z,59.70
2018-01-23T07:52:50.802Z,72.53
2018-01-23T07:55:18.911Z,59.23
2018-01-23T07:57:46.660Z,54.87
2018-01-23T08:00:16.927Z,60.03
2018-01-23T08:02:44.667Z,56.87
2018-01-23T08:05:13.550Z,65.90
2018-01-23T08:07:42.992Z,75.23
2018-01-23T08:10:10.738Z,64.30
2018-01-23T08:12:39.442Z,55.60
2018-01-23T08:15:07.156Z,59.40
2018-01-23T08:17:34.899Z,59.67
2018-01-23T08:20:02.734Z,57.83
2018-01-23T08:22:30.587Z,106.73
2018-01-23T08:24:58.253Z,45.40
2018-01-23T08:27:26.742Z,47.50
2018-01-23T08:29:54.482Z,56.27
2018-01-23T08:32:22.366Z,47.70
2018-01-23T08:34:50.197Z,45.73
2018-01-23T08:37:18.137Z,42.30
2018-01-23T08:39:45.960Z,41.33
2018-01-23T08:42:13.807Z,46.27
2018-01-23T08:44:41.604Z,40.80
2018-01-23T08:47:09.439Z,39.23
2018-01-23T08:49:37.229Z,39.10
2018-01-23T08:52:05.081Z,39.43
2018-01-23T08:54:32.859Z,43.47
2018-01-23T08:57:00.714Z,43.80
2018-01-23T08:59:28.516Z,37.70
2018-01-23T09:01:56.322Z,37.13
2018-01-23T09:04:24.005Z,30.50
2018-01-23T09:06:52.191Z,37.87
2018-01-23T09:09:21.574Z,44.57
2018-01-23T09:11:50.085Z,46.80
2018-01-23T09:14:17.944Z,41.07
2018-01-23T09:16:45.926Z,36.03
2018-01-23T09:19:13.756Z,36.97
2018-01-23T09:21:41.804Z,49.47
2018-01-23T09:24:10.572Z,35.53
2018-01-23T09:26:38.430Z,35.27
2018-01-23T09:29:08.368Z,36.83
2018-01-23T09:31:36.307Z,31.53
2018-01-23T09:34:04.131Z,28.90
2018-01-23T09:36:32.042Z,33.33
2018-01-23T09:38:59.971Z,32.43
2018-01-23T09:41:27.860Z,32.27
2018-01-23T09:43:55.707Z,34.50
2018-01-23T09:46:23.555Z,30.10
2018-01-23T09:48:51.450Z,36.47
2018-01-23T09:51:19.280Z,36.33
2018-01-23T09:53:48.954Z,43.60
2018-01-23T09:56:16.836Z,42.37
2018-01-23T09:58:45.648Z,40.93
2018-01-23T10:01:13.459Z,40.40
2018-01-23T10:03:42.006Z,31.73
2018-01-23T10:06:09.829Z,37.50
2018-01-23T10:08:38.306Z,38.20
2018-01-23T10:11:06.160Z,34.63
2018-01-23T10:13:37.373Z,36.63
2018-01-23T10:16:05.270Z,39.77
2018-01-23T10:18:33.142Z,55.73
2018-01-23T10:21:00.963Z,42.27
2018-01-23T10:23:31.889Z,33.77
2018-01-23T10:25:59.737Z,44.43
2018-01-23T10:28:27.589Z,44.37
2018-01-23T10:30:59.525Z,45.90
2018-01-23T10:33:28.704Z,38.03
2018-01-23T10:35:56.488Z,47.63
2018-01-23T10:38:27.543Z,49.07
2018-01-23T10:40:55.315Z,40.70
2018-01-23T10:43:24.533Z,46.37
2018-01-23T10:45:52.301Z,39.37
2018-01-23T10:48:20.204Z,32.37
2018-01-23T10:50:48.084Z,39.03
2018-01-23T10:57:22.976Z,42.83
2018-01-23T10:59:50.860Z,50.07
2018-01-23T11:02:18.679Z,47.63
2018-01-23T11:04:46.625Z,49.57
2018-01-23T11:07:14.440Z,50.30
2018-01-23T11:09:44.083Z,45.97
2018-01-23T11:12:12.033Z,51.60
2018-01-23T11:14:39.810Z,54.37
2018-01-23T11:17:08.018Z,43.03
2018-01-23T11:19:53.704Z,45.50
2018-01-23T11:22:23.842Z,54.30
2018-01-23T11:24:52.383Z,49.03
2018-01-23T11:27:20.880Z,46.50
2018-01-23T11:29:58.525Z,52.90
2018-01-23T11:32:27.502Z,46.37
2018-01-23T11:34:59.332Z,47.30
2018-01-23T11:37:27.829Z,59.47
2018-01-23T11:42:46.027Z,62.67
2018-01-23T11:45:22.311Z,57.07
2018-01-23T11:50:43.880Z,45.17
2018-01-23T11:53:12.066Z,59.57
2018-01-23T11:55:40.880Z,39.70
2018-01-23T11:58:20.369Z,48.00
2018-01-23T12:01:02.474Z,45.37
2018-01-23T12:10:40.062Z,55.73
2018-01-23T12:16:10.328Z,49.47
2018-01-23T12:18:38.102Z,46.23
2018-01-23T12:21:05.756Z,43.80
2018-01-23T12:23:33.463Z,44.20
2018-01-23T12:26:01.141Z,44.67
2018-01-23T12:28:28.857Z,49.43
2018-01-23T12:30:56.521Z,48.80
2018-01-23T12:33:24.216Z,50.23
2018-01-23T12:35:51.886Z,46.40
2018-01-23T12:38:19.583Z,49.53
2018-01-23T12:40:47.244Z,43.87
2018-01-23T12:43:14.934Z,48.03
2018-01-23T12:45:42.599Z,50.87
2018-01-23T12:48:10.300Z,56.07
2018-01-23T12:50:37.979Z,45.30
2018-01-23T12:53:05.708Z,54.43
2018-01-23T12:55:33.394Z,49.57
2018-01-23T12:58:01.090Z,56.70
2018-01-23T13:00:28.832Z,46.50
2018-01-23T13:02:56.650Z,45.57
2018-01-23T13:05:24.326Z,43.13
2018-01-23T13:07:52.079Z,48.43
2018-01-23T13:10:19.905Z,45.83
2018-01-23T13:12:47.739Z,43.50
2018-01-23T13:15:15.433Z,47.73
2018-01-23T13:17:43.142Z,42.60
2018-01-23T13:20:10.865Z,47.33
2018-01-23T13:22:38.543Z,47.17
2018-01-23T13:25:06.251Z,37.30
2018-01-23T13:27:33.926Z,42.97
2018-01-23T13:30:01.768Z,46.53
2018-01-23T13:32:29.510Z,58.17
2018-01-23T13:34:57.308Z,50.80
2018-01-23T13:37:25.070Z,49.57
2018-01-23T13:39:52.853Z,46.10
2018-01-23T13:42:20.592Z,48.10
2018-01-23T13:44:49.294Z,47.97
2018-01-23T13:47:16.972Z,50.60
2018-01-23T13:49:44.747Z,38.57
2018-01-23T13:52:12.501Z,38.90
2018-01-23T13:54:40.303Z,48.20
2018-01-23T13:57:08.053Z,48.37
2018-01-23T13:59:35.845Z,35.80
2018-01-23T14:02:03.487Z,39.53
2018-01-23T14:04:31.217Z,52.03
2018-01-23T14:06:58.937Z,47.37
2018-01-23T14:09:26.659Z,39.50
2018-01-23T14:11:54.344Z,41.33
2018-01-23T14:14:22.094Z,50.53
2018-01-23T14:16:49.756Z,35.60
2018-01-23T14:19:17.493Z,39.83
2018-01-23T14:21:45.152Z,47.77
2018-01-23T14:24:13.145Z,42.20
2018-01-23T14:26:40.832Z,38.30
2018-01-23T14:29:08.556Z,40.80
2018-01-23T14:31:36.316Z,42.80
2018-01-23T14:34:04.031Z,41.37
2018-01-23T14:36:31.692Z,42.57
2018-01-23T14:38:59.398Z,44.70
2018-01-23T14:41:27.050Z,36.33
2018-01-23T14:43:54.796Z,50.83
2018-01-23T14:46:22.468Z,48.00
2018-01-23T14:48:50.126Z,41.30
2018-01-23T14:51:17.837Z,36.60
2018-01-23T14:53:45.592Z,42.67
2018-01-23T14:56:13.316Z,38.73
2018-01-23T14:58:41.027Z,45.90
2018-01-23T15:01:08.818Z,38.53
2018-01-23T15:03:36.524Z,47.03
2018-01-23T15:06:04.234Z,50.70
2018-01-23T15:08:31.898Z,50.20
2018-01-23T15:10:59.632Z,117.13
2018-01-23T15:13:27.412Z,73.50
2018-01-23T15:15:55.215Z,47.93
2018-01-23T15:18:22.883Z,46.00
2018-01-23T15:20:50.598Z,48.47
2018-01-23T15:23:18.380Z,54.90
2018-01-23T15:25:46.160Z,50.57
2018-01-23T15:28:13.900Z,47.27
2018-01-23T15:30:41.699Z,58.33
2018-01-23T15:33:09.355Z,49.13
2018-01-23T15:35:37.153Z,48.50
2018-01-23T15:38:04.892Z,54.80
2018-01-23T15:40:32.716Z,41.30
2018-01-23T15:43:00.469Z,55.20
2018-01-23T15:45:28.187Z,47.70
2018-01-23T15:47:55.936Z,52.60
2018-01-23T15:50:23.769Z,41.90
2018-01-23T15:52:51.457Z,57.10
2018-01-23T15:55:19.259Z,63.60
2018-01-23T15:57:47.002Z,52.33
2018-01-23T16:00:14.690Z,45.90
2018-01-23T16:02:42.468Z,54.97
2018-01-23T16:05:10.195Z,55.87
2018-01-23T16:07:37.841Z,53.07
2018-01-23T16:10:05.683Z,75.47
2018-01-23T16:12:33.486Z,52.43
2018-01-23T16:15:01.273Z,51.03
2018-01-23T16:17:29.052Z,56.93
2018-01-23T16:19:56.843Z,49.43
2018-01-23T16:22:24.596Z,50.77
2018-01-23T16:24:52.333Z,51.20
2018-01-23T16:27:20.099Z,42.17
2018-01-23T16:29:47.835Z,49.10
2018-01-23T16:32:15.555Z,51.37
2018-01-23T16:34:43.248Z,47.57
2018-01-23T16:37:10.953Z,46.57
2018-01-23T16:39:38.694Z,47.43
2018-01-23T16:42:06.555Z,47.30
2018-01-23T16:44:34.222Z,53.30
2018-01-23T16:47:02.036Z,46.23
2018-01-23T16:49:29.795Z,45.20
2018-01-23T16:51:57.501Z,42.00
2018-01-23T16:54:25.202Z,42.90
2018-01-23T16:56:52.914Z,36.93
2018-01-23T16:59:20.573Z,45.37
2018-01-23T17:01:48.297Z,40.90
2018-01-23T17:04:15.943Z,38.13
2018-01-23T17:06:43.658Z,39.80
2018-01-23T17:09:11.327Z,44.40
2018-01-23T17:11:39.047Z,36.63
2018-01-23T17:14:06.693Z,47.03
2018-01-23T17:16:34.390Z,49.60
2018-01-23T17:19:02.062Z,46.30
2018-01-23T17:21:29.804Z,42.77
2018-01-23T17:23:57.488Z,43.90
2018-01-23T17:26:25.203Z,36.63
2018-01-23T17:28:52.879Z,34.47
2018-01-23T17:31:20.587Z,39.63
2018-01-23T17:33:48.253Z,39.53
2018-01-23T17:36:15.954Z,34.20
2018-01-23T17:38:43.617Z,34.60
2018-01-23T17:41:11.335Z,27.87
2018-01-23T17:43:38.991Z,26.83
2018-01-23T17:46:06.736Z,34.03
2018-01-23T17:48:34.397Z,28.13
2018-01-23T17:51:02.113Z,37.63
2018-01-23T17:53:29.773Z,29.90
2018-01-23T17:55:57.478Z,30.83
2018-01-23T17:58:25.195Z,31.13
2018-01-23T18:00:52.898Z,25.87
2018-01-23T18:03:20.638Z,36.27
2018-01-23T18:05:48.475Z,25.48
2018-01-23T18:08:16.142Z,30.53
2018-01-23T18:10:43.979Z,25.37
2018-01-23T18:13:11.815Z,27.67
2018-01-23T18:15:39.461Z,28.10
2018-01-23T18:18:07.269Z,25.97
2018-01-23T18:20:34.936Z,29.23
2018-01-23T18:23:02.679Z,24.20
2018-01-23T18:25:30.420Z,21.33
2018-01-23T18:27:58.177Z,22.60
2018-01-23T18:30:25.910Z,20.73
2018-01-23T18:32:53.754Z,20.60
2018-01-23T18:35:21.536Z,30.17
2018-01-23T18:37:49.339Z,19.77
2018-01-23T18:40:17.153Z,22.07
2018-01-23T18:42:44.940Z,20.00
2018-01-23T18:45:12.674Z,14.33
2018-01-23T18:47:40.484Z,15.90
2018-01-23T18:50:08.154Z,20.60
2018-01-23T18:52:35.948Z,19.73
2018-01-23T18:55:03.707Z,16.17
2018-01-23T18:57:31.580Z,19.70
2018-01-23T18:59:59.241Z,17.47
2018-01-23T19:02:27.104Z,16.37
2018-01-23T19:04:54.855Z,14.60
2018-01-23T19:07:22.630Z,23.43
2018-01-23T19:09:50.355Z,17.40
2018-01-23T19:12:18.230Z,17.83
2018-01-23T19:14:46.023Z,17.87
2018-01-23T19:17:13.747Z,65.63
2018-01-23T19:19:41.414Z,46.77
2018-01-23T19:22:09.159Z,35.80
2018-01-23T19:24:36.880Z,23.40
2018-01-23T19:27:04.735Z,16.27
2018-01-23T19:29:32.471Z,22.33
2018-01-23T19:32:00.212Z,18.60
2018-01-23T19:34:27.913Z,18.80
2018-01-23T19:36:55.675Z,16.67
2018-01-23T19:39:23.496Z,18.97
2018-01-23T19:41:51.341Z,14.80
2018-01-23T19:44:19.065Z,17.17
2018-01-23T19:46:46.834Z,17.97
2018-01-23T19:49:15.443Z,14.87
2018-01-23T19:51:43.172Z,16.90
2018-01-23T19:54:11.672Z,17.60
2018-01-23T19:56:39.359Z,16.67
2018-01-23T19:59:07.139Z,16.13
2018-01-23T20:01:38.026Z,16.93
2018-01-23T20:04:05.729Z,14.93
2018-01-23T20:06:33.466Z,19.30
2018-01-23T20:09:01.260Z,18.60
2018-01-23T20:11:28.947Z,17.67
2018-01-23T20:13:59.360Z,17.57
2018-01-23T20:16:27.019Z,22.63
2018-01-23T20:18:54.738Z,19.43
2018-01-23T20:21:22.452Z,13.77
2018-01-23T20:23:50.186Z,15.10
2018-01-23T20:26:17.873Z,15.10
2018-01-23T20:28:45.723Z,17.33
2018-01-23T20:31:13.512Z,18.00
2018-01-23T20:33:41.227Z,18.03
2018-01-23T20:36:08.951Z,18.37
2018-01-23T20:38:36.699Z,15.87
2018-01-23T20:41:04.487Z,19.30
2018-01-23T20:43:32.347Z,16.37
2018-01-23T20:46:00.047Z,14.03
2018-01-23T20:48:27.794Z,14.97
2018-01-23T20:50:55.459Z,16.20
2018-01-23T20:53:23.211Z,13.23
2018-01-23T20:55:50.954Z,14.20
2018-01-23T20:58:18.644Z,17.10
2018-01-23T21:00:46.385Z,16.10
2018-01-23T21:03:14.087Z,20.67
2018-01-23T21:05:41.798Z,18.53
2018-01-23T21:08:09.544Z,21.57
2018-01-23T21:10:37.274Z,16.60
2018-01-23T21:13:05.037Z,28.90
2018-01-23T21:15:32.770Z,21.77
2018-01-23T21:18:00.468Z,24.20
2018-01-23T21:20:28.182Z,25.00
2018-01-23T21:22:55.944Z,20.83
2018-01-23T21:25:23.622Z,18.80
2018-01-23T21:27:51.327Z,20.53
2018-01-23T21:30:19.034Z,20.73
2018-01-23T21:32:46.798Z,22.47
2018-01-23T21:35:14.502Z,18.53
2018-01-23T21:37:42.204Z,20.43
2018-01-23T21:40:09.892Z,16.70
2018-01-23T21:42:37.536Z,19.10
2018-01-23T21:45:05.248Z,16.50
2018-01-23T21:47:32.931Z,14.80
2018-01-23T21:50:00.674Z,16.30
2018-01-23T21:52:28.454Z,17.17
2018-01-23T21:54:56.273Z,15.33
2018-01-23T21:57:24.031Z,14.33
2018-01-23T21:59:51.892Z,15.70
2018-01-23T22:02:19.634Z,14.97
2018-01-23T22:04:47.387Z,19.63
2018-01-23T22:07:15.101Z,15.10
2018-01-23T22:09:42.863Z,19.10
2018-01-23T22:12:10.580Z,17.07
2018-01-23T22:14:38.600Z,14.63
2018-01-23T22:17:06.304Z,22.97
2018-01-23T22:19:34.004Z,15.73
2018-01-23T22:22:01.675Z,20.20
2018-01-23T22:24:29.416Z,21.23
2018-01-23T22:26:57.073Z,25.33
2018-01-23T22:29:24.756Z,18.70
2018-01-23T22:31:52.399Z,17.33
2018-01-23T22:34:20.189Z,18.53
2018-01-23T22:36:48.059Z,27.10
2018-01-23T22:39:15.786Z,20.93
2018-01-23T22:41:43.426Z,16.53
2018-01-23T22:44:11.206Z,17.57
2018-01-23T22:46:38.849Z,19.20
2018-01-23T22:49:06.574Z,16.30
2018-01-23T22:51:34.219Z,15.50
2018-01-23T22:54:02.018Z,26.10
2018-01-23T22:56:29.721Z,20.80
2018-01-23T22:58:57.490Z,17.50
2018-01-23T23:01:25.147Z,17.10
2018-01-23T23:03:52.838Z,19.27
2018-01-23T23:06:20.515Z,17.53
2018-01-23T23:08:48.298Z,17.40
2018-01-23T23:11:16.091Z,22.63
2018-01-23T23:13:43.886Z,23.17
2018-01-23T23:16:11.629Z,30.20
2018-01-23T23:18:39.351Z,20.37
2018-01-23T23:21:07.115Z,19.63
2018-01-23T23:23:34.755Z,18.97
2018-01-23T23:26:02.532Z,23.00
2018-01-23T23:28:30.254Z,22.87
2018-01-23T23:30:58.027Z,21.90
2018-01-23T23:33:25.754Z,21.43
2018-01-23T23:35:53.469Z,23.00
2018-01-23T23:38:21.200Z,23.63
2018-01-23T23:40:48.888Z,20.73
2018-01-23T23:43:16.615Z,20.87
2018-01-23T23:45:44.314Z,22.13
2018-01-23T23:48:12.011Z,20.57
2018-01-23T23:50:39.805Z,22.07
2018-01-23T23:53:07.547Z,21.20
2018-01-23T23:55:35.348Z,21.83
2018-01-23T23:58:03.000Z,20.93
